Thune, Nebraska
Current Conditions -  °F | °C
As of 7:15 PM on Sunday 25 Jan 2015 (Local Time) from KOGA Reporting Station
Overcast Overcast  
Wind Chill: 36°   Ceiling: 9000
Heat Index: 40°   Visibility: 10mi
Dew Point: 33°   Wind: 6mph
Humidity: 75%   Direction: 250°WSW
Pressure: 30.07"   Gusts: NA
Location:  41.2105°N, 101.376°W
Report Text: KOGA 260215Z AUTO 25005KT 10SM OVC090 05/00 A3007 RMK AO2 T00450004
Loading
Personal Weather Stations






























Interactive Weather Map New forecast layout! Learn more

10-Day Weather Forecast

Advertisements
Track Severe Weather on mobile